createdAt,value
2019-01-14T00:00:28.623Z,993.61
2019-01-14T00:01:28.612Z,993.63
2019-01-14T00:02:28.811Z,993.63
2019-01-14T00:03:28.594Z,993.64
2019-01-14T00:04:28.594Z,993.56
2019-01-14T00:05:28.583Z,993.66
2019-01-14T00:06:28.575Z,993.61
2019-01-14T00:07:28.560Z,993.66
2019-01-14T00:08:29.757Z,993.65
2019-01-14T00:09:31.141Z,993.78
2019-01-14T00:11:28.528Z,993.89
2019-01-14T00:13:28.511Z,993.91
2019-01-14T00:14:28.503Z,994.00
2019-01-14T00:15:29.723Z,993.91
2019-01-14T00:16:28.488Z,993.95
2019-01-14T00:17:28.474Z,994.02
2019-01-14T00:19:28.462Z,994.07
2019-01-14T00:20:28.653Z,994.01
2019-01-14T00:21:28.444Z,993.97
2019-01-14T00:22:28.440Z,994.04
2019-01-14T00:23:28.428Z,994.10
2019-01-14T00:24:28.422Z,994.07
2019-01-14T00:25:28.610Z,994.04
2019-01-14T00:26:28.405Z,994.14
2019-01-14T00:28:28.387Z,994.19
2019-01-14T00:29:28.377Z,994.21
2019-01-14T00:30:28.365Z,994.18
2019-01-14T00:32:28.354Z,994.30
2019-01-14T00:33:28.343Z,994.35
2019-01-14T00:34:28.540Z,994.28
2019-01-14T00:36:28.318Z,994.34
2019-01-14T00:37:28.509Z,994.35
2019-01-14T00:38:28.501Z,994.36
2019-01-14T00:39:28.293Z,994.38
2019-01-14T00:41:28.472Z,994.46
2019-01-14T00:42:28.270Z,994.51
2019-01-14T00:43:28.262Z,994.47
2019-01-14T00:44:28.251Z,994.52
2019-01-14T00:45:28.243Z,994.53
2019-01-14T00:47:28.227Z,994.57
2019-01-14T00:48:28.218Z,994.52
2019-01-14T00:49:28.206Z,994.61
2019-01-14T00:50:28.199Z,994.49
2019-01-14T00:51:28.192Z,994.60
2019-01-14T00:52:28.181Z,994.61
2019-01-14T00:54:28.162Z,994.53
2019-01-14T00:56:28.150Z,994.57
2019-01-14T00:58:28.131Z,994.60
2019-01-14T00:59:28.321Z,994.69
2019-01-14T01:02:28.305Z,994.80
2019-01-14T01:04:28.086Z,994.87
2019-01-14T01:05:28.077Z,994.87
2019-01-14T01:06:28.067Z,994.87
2019-01-14T01:07:28.060Z,994.91
2019-01-14T01:08:28.043Z,994.91
2019-01-14T01:11:28.021Z,994.94
2019-01-14T01:13:28.005Z,995.01
2019-01-14T01:14:27.995Z,995.02
2019-01-14T01:15:27.989Z,995.07
2019-01-14T01:17:27.970Z,995.07
2019-01-14T01:19:27.957Z,995.09
2019-01-14T01:21:27.942Z,995.12
2019-01-14T01:22:27.927Z,995.13
2019-01-14T01:23:27.923Z,995.20
2019-01-14T01:24:27.918Z,995.20
2019-01-14T01:25:28.108Z,995.22
2019-01-14T01:26:27.902Z,995.24
2019-01-14T01:27:28.094Z,995.27
2019-01-14T01:29:27.880Z,995.30
2019-01-14T01:31:28.053Z,995.40
2019-01-14T01:32:27.850Z,995.46
2019-01-14T01:33:28.037Z,995.42
2019-01-14T01:34:27.825Z,995.47
2019-01-14T01:35:27.869Z,995.45
2019-01-14T01:36:31.822Z,995.45
2019-01-14T01:38:27.797Z,995.45
2019-01-14T01:41:27.768Z,995.57
2019-01-14T01:42:27.763Z,995.61
2019-01-14T01:43:27.750Z,995.63
2019-01-14T01:44:27.748Z,995.68
2019-01-14T01:46:27.731Z,995.71
2019-01-14T01:48:00.930Z,995.69
2019-01-14T01:48:27.721Z,995.76
2019-01-14T01:49:27.705Z,995.78
2019-01-14T01:50:27.895Z,995.75
2019-01-14T01:51:27.688Z,995.72
2019-01-14T01:52:27.674Z,995.84
2019-01-14T01:53:27.870Z,995.91
2019-01-14T01:56:27.646Z,995.99
2019-01-14T01:57:27.635Z,996.02
2019-01-14T01:58:27.632Z,996.02
2019-01-14T01:59:27.615Z,996.05
2019-01-14T02:00:27.610Z,996.06
2019-01-14T02:01:27.607Z,996.08
2019-01-14T02:02:27.594Z,996.09
2019-01-14T02:03:27.584Z,996.10
2019-01-14T02:04:27.574Z,996.06
2019-01-14T02:05:27.572Z,996.08
2019-01-14T02:06:27.557Z,996.07
2019-01-14T02:08:27.543Z,996.13
2019-01-14T02:09:27.537Z,996.19
2019-01-14T02:10:27.530Z,996.21
2019-01-14T02:11:27.521Z,996.23
2019-01-14T02:13:27.706Z,996.20
2019-01-14T02:14:27.495Z,996.22
2019-01-14T02:15:27.494Z,996.21
2019-01-14T02:16:27.480Z,996.27
2019-01-14T02:17:27.476Z,996.30
2019-01-14T02:18:27.458Z,996.31
2019-01-14T02:19:27.449Z,996.25
2019-01-14T02:20:27.450Z,996.28
2019-01-14T02:21:27.440Z,996.28
2019-01-14T02:22:27.426Z,996.30
2019-01-14T02:24:27.416Z,996.36
2019-01-14T02:25:28.009Z,996.42
2019-01-14T02:26:27.394Z,996.39
2019-01-14T02:28:27.377Z,996.43
2019-01-14T02:29:27.576Z,996.48
2019-01-14T02:31:27.354Z,996.51
2019-01-14T02:32:27.345Z,996.55
2019-01-14T02:33:27.337Z,996.56
2019-01-14T02:34:27.323Z,996.56
2019-01-14T02:35:27.320Z,996.61
2019-01-14T02:36:27.513Z,996.69
2019-01-14T02:38:27.494Z,996.62
2019-01-14T02:39:27.283Z,996.67
2019-01-14T02:40:27.478Z,996.69
2019-01-14T02:41:27.670Z,996.68
2019-01-14T02:42:27.665Z,996.70
2019-01-14T02:43:27.252Z,996.71
2019-01-14T02:44:27.243Z,996.74
2019-01-14T02:45:27.244Z,996.75
2019-01-14T02:46:27.227Z,996.76
2019-01-14T02:48:27.413Z,996.87
2019-01-14T02:49:27.197Z,996.89
2019-01-14T02:50:27.196Z,996.87
2019-01-14T02:51:27.186Z,996.90
2019-01-14T02:52:27.376Z,996.89
2019-01-14T02:53:27.376Z,996.91
2019-01-14T02:54:27.163Z,996.89
2019-01-14T02:55:27.392Z,996.95
2019-01-14T02:56:27.137Z,996.98
2019-01-14T02:57:27.336Z,996.98
2019-01-14T02:58:27.125Z,996.95
2019-01-14T03:00:27.111Z,997.06
2019-01-14T03:01:27.097Z,997.15
2019-01-14T03:04:27.078Z,997.12
2019-01-14T03:05:27.064Z,997.11
2019-01-14T03:06:27.061Z,997.15
2019-01-14T03:07:27.050Z,997.15
2019-01-14T03:08:27.044Z,997.19
2019-01-14T03:10:27.020Z,997.20
2019-01-14T03:12:26.999Z,997.20
2019-01-14T03:13:27.002Z,997.21
2019-01-14T03:14:27.185Z,997.23
2019-01-14T03:15:27.181Z,997.25
2019-01-14T03:16:26.973Z,997.26
2019-01-14T03:17:26.966Z,997.24
2019-01-14T03:18:27.190Z,997.18
2019-01-14T03:19:26.947Z,997.22
2019-01-14T03:20:26.931Z,997.23
2019-01-14T03:21:27.129Z,997.27
2019-01-14T03:22:26.924Z,997.26
2019-01-14T03:23:26.913Z,997.30
2019-01-14T03:24:26.897Z,997.31
2019-01-14T03:28:27.063Z,997.41
2019-01-14T03:30:26.853Z,997.39
2019-01-14T03:31:26.836Z,997.42
2019-01-14T03:33:26.821Z,997.42
2019-01-14T03:34:26.818Z,997.47
2019-01-14T03:35:26.809Z,997.41
2019-01-14T03:36:26.804Z,997.54
2019-01-14T03:38:26.781Z,997.58
2019-01-14T03:39:26.769Z,997.56
2019-01-14T03:40:26.764Z,997.60
2019-01-14T03:41:26.750Z,997.59
2019-01-14T03:42:26.747Z,997.63
2019-01-14T03:43:26.935Z,997.62
2019-01-14T03:44:26.733Z,997.66
2019-01-14T03:46:26.708Z,997.61
2019-01-14T03:47:26.702Z,997.68
2019-01-14T03:48:26.897Z,997.66
2019-01-14T03:49:26.686Z,997.71
2019-01-14T03:50:26.678Z,997.69
2019-01-14T03:51:26.669Z,997.73
2019-01-14T03:52:26.664Z,997.75
2019-01-14T03:53:26.648Z,997.77
2019-01-14T03:54:26.638Z,997.75
2019-01-14T03:55:26.632Z,997.73
2019-01-14T03:56:26.621Z,997.77
2019-01-14T03:58:26.605Z,997.79
2019-01-14T04:00:26.608Z,997.82
2019-01-14T04:02:26.572Z,997.83
2019-01-14T04:03:26.569Z,997.85
2019-01-14T04:04:26.562Z,997.84
2019-01-14T04:05:26.554Z,997.86
2019-01-14T04:06:26.543Z,997.82
2019-01-14T04:07:26.531Z,997.85
2019-01-14T04:08:26.528Z,997.85
2019-01-14T04:09:26.518Z,997.87
2019-01-14T04:10:26.506Z,997.82
2019-01-14T04:11:26.499Z,997.82
2019-01-14T04:12:26.490Z,997.81
2019-01-14T04:13:26.480Z,997.84
2019-01-14T04:14:26.470Z,997.82
2019-01-14T04:15:26.867Z,997.82
2019-01-14T04:16:26.454Z,997.82
2019-01-14T04:17:26.443Z,997.87
2019-01-14T04:18:26.437Z,997.87
2019-01-14T04:20:26.423Z,997.98
2019-01-14T04:22:26.401Z,997.97
2019-01-14T04:23:26.392Z,998.00
2019-01-14T04:25:26.383Z,998.05
2019-01-14T04:26:26.576Z,998.05
2019-01-14T04:27:26.561Z,998.03
2019-01-14T04:28:26.358Z,998.07
2019-01-14T04:29:27.761Z,998.05
2019-01-14T04:30:26.336Z,998.10
2019-01-14T04:31:26.534Z,998.11
2019-01-14T04:32:26.323Z,998.05
2019-01-14T04:33:27.521Z,998.14
2019-01-14T04:34:26.304Z,998.14
2019-01-14T04:35:26.292Z,998.16
2019-01-14T04:36:26.292Z,998.13
2019-01-14T04:37:26.278Z,998.15
2019-01-14T04:38:26.273Z,998.15
2019-01-14T04:41:26.243Z,998.13
2019-01-14T04:44:26.419Z,998.16
2019-01-14T04:47:26.188Z,998.18
2019-01-14T04:48:27.309Z,998.16
2019-01-14T04:49:26.178Z,998.16
2019-01-14T04:50:26.172Z,998.19
2019-01-14T04:51:26.162Z,998.21
2019-01-14T04:52:26.146Z,998.23
2019-01-14T04:54:26.130Z,998.26
2019-01-14T04:55:26.128Z,998.20
2019-01-14T04:56:26.315Z,998.21
2019-01-14T04:57:26.109Z,998.24
2019-01-14T04:58:26.298Z,998.19
2019-01-14T04:59:26.118Z,998.29
2019-01-14T05:00:26.288Z,998.26
2019-01-14T05:01:26.069Z,998.27
2019-01-14T05:02:26.063Z,998.30
2019-01-14T05:03:26.052Z,998.34
2019-01-14T05:04:26.046Z,998.37
2019-01-14T05:06:26.036Z,998.39
2019-01-14T05:07:29.711Z,998.41
2019-01-14T05:08:26.011Z,998.40
2019-01-14T05:09:27.272Z,998.44
2019-01-14T05:12:25.981Z,998.49
2019-01-14T05:13:26.176Z,998.48
2019-01-14T05:15:25.953Z,998.53
2019-01-14T05:16:25.947Z,998.56
2019-01-14T05:18:25.930Z,998.56
2019-01-14T05:19:25.917Z,998.63
2019-01-14T05:20:25.912Z,998.64
2019-01-14T05:21:25.898Z,998.69
2019-01-14T05:22:26.296Z,998.70
2019-01-14T05:23:26.082Z,998.66
2019-01-14T05:24:25.873Z,998.76
2019-01-14T05:25:26.067Z,998.74
2019-01-14T05:26:25.864Z,998.73
2019-01-14T05:27:25.846Z,998.76
2019-01-14T05:29:25.832Z,998.78
2019-01-14T05:30:25.833Z,998.81
2019-01-14T05:31:25.823Z,998.88
2019-01-14T05:32:25.805Z,998.90
2019-01-14T05:35:25.781Z,998.95
2019-01-14T05:36:25.774Z,998.96
2019-01-14T05:37:25.768Z,999.01
2019-01-14T05:38:25.752Z,999.02
2019-01-14T05:39:25.744Z,999.09
2019-01-14T05:40:26.342Z,999.04
2019-01-14T05:41:25.731Z,999.08
2019-01-14T05:42:25.725Z,999.06
2019-01-14T05:44:25.711Z,999.14
2019-01-14T05:45:25.896Z,999.11
2019-01-14T05:46:25.682Z,999.11
2019-01-14T05:47:25.676Z,999.14
2019-01-14T05:48:25.670Z,999.14
2019-01-14T05:49:25.662Z,999.14
2019-01-14T05:50:25.652Z,999.12
2019-01-14T05:51:25.639Z,999.19
2019-01-14T05:53:25.626Z,999.20
2019-01-14T05:54:25.623Z,999.20
2019-01-14T05:55:25.604Z,999.23
2019-01-14T05:56:25.598Z,999.24
2019-01-14T05:57:25.592Z,999.24
2019-01-14T05:58:25.585Z,999.21
2019-01-14T05:59:25.573Z,999.25
2019-01-14T06:01:25.559Z,999.29
2019-01-14T06:02:25.550Z,999.34
2019-01-14T06:03:25.539Z,999.32
2019-01-14T06:04:25.536Z,999.37
2019-01-14T06:05:25.524Z,999.42
2019-01-14T06:06:25.515Z,999.37
2019-01-14T06:07:25.509Z,999.40
2019-01-14T06:08:25.494Z,999.36
2019-01-14T06:09:25.494Z,999.40
2019-01-14T06:10:25.484Z,999.43
2019-01-14T06:11:25.673Z,999.44
2019-01-14T06:13:25.460Z,999.43
2019-01-14T06:14:25.457Z,999.48
2019-01-14T06:15:25.640Z,999.50
2019-01-14T06:17:25.618Z,999.48
2019-01-14T06:18:25.417Z,999.47
2019-01-14T06:19:25.401Z,999.49
2019-01-14T06:20:25.401Z,999.50
2019-01-14T06:21:25.390Z,999.48
2019-01-14T06:23:25.370Z,999.44
2019-01-14T06:24:25.359Z,999.45
2019-01-14T06:25:25.356Z,999.44
2019-01-14T06:26:25.338Z,999.48
2019-01-14T06:27:25.331Z,999.49
2019-01-14T06:28:25.522Z,999.47
2019-01-14T06:29:25.312Z,999.51
2019-01-14T06:30:25.305Z,999.49
2019-01-14T06:31:25.303Z,999.53
2019-01-14T06:34:25.332Z,999.58
2019-01-14T06:35:25.262Z,999.56
2019-01-14T06:36:25.252Z,999.49
2019-01-14T06:37:25.452Z,999.52
2019-01-14T06:38:25.241Z,999.54
2019-01-14T06:39:25.226Z,999.59
2019-01-14T06:40:25.218Z,999.55
2019-01-14T06:41:25.411Z,999.55
2019-01-14T06:42:25.608Z,999.52
2019-01-14T06:43:25.193Z,999.57
2019-01-14T06:44:25.185Z,999.61
2019-01-14T06:45:25.176Z,999.62
2019-01-14T06:46:25.170Z,999.66
2019-01-14T06:48:25.147Z,999.68
2019-01-14T06:49:25.151Z,999.67
2019-01-14T06:50:25.337Z,999.68
2019-01-14T06:51:25.118Z,999.75
2019-01-14T06:52:25.311Z,999.71
2019-01-14T06:53:25.101Z,999.74
2019-01-14T06:54:25.312Z,999.74
2019-01-14T06:56:25.076Z,999.76
2019-01-14T06:57:25.065Z,999.75
2019-01-14T06:58:25.056Z,999.76
2019-01-14T07:00:25.044Z,999.85
2019-01-14T07:02:25.023Z,999.81
2019-01-14T07:03:25.017Z,999.87
2019-01-14T07:04:25.005Z,999.89
2019-01-14T07:05:24.995Z,999.95
2019-01-14T07:06:24.989Z,999.96
2019-01-14T07:07:24.980Z,1000.03
2019-01-14T07:09:24.986Z,1000.08
2019-01-14T07:10:24.952Z,1000.10
2019-01-14T07:11:24.949Z,1000.11
2019-01-14T07:12:24.931Z,1000.14
2019-01-14T07:14:24.913Z,1000.16
2019-01-14T07:15:25.111Z,1000.23
2019-01-14T07:16:24.899Z,1000.20
2019-01-14T07:17:24.890Z,1000.20
2019-01-14T07:18:24.876Z,1000.22
2019-01-14T07:20:24.864Z,1000.29
2019-01-14T07:22:24.838Z,1000.31
2019-01-14T07:23:24.827Z,1000.36
2019-01-14T07:24:24.823Z,1000.39
2019-01-14T07:25:24.809Z,1000.40
2019-01-14T07:26:25.010Z,1000.44
2019-01-14T07:27:24.796Z,1000.53
2019-01-14T07:28:24.992Z,1000.55
2019-01-14T07:30:24.772Z,1000.59
2019-01-14T07:31:24.753Z,1000.62
2019-01-14T07:32:24.746Z,1000.59
2019-01-14T07:33:24.736Z,1000.60
2019-01-14T07:34:24.733Z,1000.64
2019-01-14T07:35:24.719Z,1000.58
2019-01-14T07:36:24.715Z,1000.55
2019-01-14T07:37:24.703Z,1000.65
2019-01-14T07:38:24.691Z,1000.64
2019-01-14T07:39:24.689Z,1000.71
2019-01-14T07:40:24.675Z,1000.70
2019-01-14T07:41:24.669Z,1000.73
2019-01-14T07:42:24.658Z,1000.74
2019-01-14T07:43:24.646Z,1000.77
2019-01-14T07:44:24.642Z,1000.78
2019-01-14T07:45:24.628Z,1000.78
2019-01-14T07:46:24.623Z,1000.78
2019-01-14T07:47:24.611Z,1000.85
2019-01-14T07:48:24.608Z,1000.86
2019-01-14T07:49:24.596Z,1000.89
2019-01-14T07:50:24.591Z,1000.90
2019-01-14T07:51:24.573Z,1000.92
2019-01-14T07:52:24.563Z,1000.98
2019-01-14T07:53:24.555Z,1000.97
2019-01-14T07:54:24.555Z,1000.98
2019-01-14T07:55:24.537Z,1001.03
2019-01-14T07:56:24.536Z,1001.04
2019-01-14T07:57:24.524Z,1001.10
2019-01-14T07:58:24.517Z,1001.05
2019-01-14T07:59:24.712Z,1001.07
2019-01-14T08:00:57.700Z,1001.10
2019-01-14T08:01:24.486Z,1001.17
2019-01-14T08:02:24.475Z,1001.13
2019-01-14T08:03:24.473Z,1001.18
2019-01-14T08:04:24.460Z,1001.16
2019-01-14T08:05:24.448Z,1001.21
2019-01-14T08:06:24.448Z,1001.22
2019-01-14T08:07:24.432Z,1001.14
2019-01-14T08:08:24.428Z,1001.17
2019-01-14T08:09:24.413Z,1001.25
2019-01-14T08:10:24.407Z,1001.26
2019-01-14T08:11:24.395Z,1001.19
2019-01-14T08:12:24.390Z,1001.22
2019-01-14T08:13:24.581Z,1001.19
2019-01-14T08:14:24.372Z,1001.16
2019-01-14T08:15:24.365Z,1001.16
2019-01-14T08:17:24.342Z,1001.21
2019-01-14T08:18:24.335Z,1001.20
2019-01-14T08:19:24.324Z,1001.24
2019-01-14T08:20:24.310Z,1001.25
2019-01-14T08:21:24.310Z,1001.33
2019-01-14T08:22:24.298Z,1001.37
2019-01-14T08:23:24.289Z,1001.40
2019-01-14T08:24:24.275Z,1001.47
2019-01-14T08:25:24.265Z,1001.48
2019-01-14T08:26:24.264Z,1001.51
2019-01-14T08:28:24.238Z,1001.54
2019-01-14T08:29:24.237Z,1001.59
2019-01-14T08:32:24.209Z,1001.58
2019-01-14T08:33:24.196Z,1001.60
2019-01-14T08:34:24.392Z,1001.61
2019-01-14T08:35:24.174Z,1001.60
2019-01-14T08:36:24.164Z,1001.61
2019-01-14T08:37:24.159Z,1001.59
2019-01-14T08:38:24.154Z,1001.64
2019-01-14T08:39:24.142Z,1001.71
2019-01-14T08:40:24.131Z,1001.67
2019-01-14T08:41:24.119Z,1001.72
2019-01-14T08:42:24.117Z,1001.75
2019-01-14T08:44:24.094Z,1001.84
2019-01-14T08:45:24.083Z,1001.87
2019-01-14T08:46:24.073Z,1001.84
2019-01-14T08:47:24.070Z,1001.84
2019-01-14T08:48:24.059Z,1001.89
2019-01-14T08:49:24.049Z,1001.98
2019-01-14T08:50:24.039Z,1001.95
2019-01-14T08:51:24.026Z,1001.95
2019-01-14T08:52:24.023Z,1002.00
2019-01-14T08:53:24.013Z,1002.04
2019-01-14T08:54:24.004Z,1001.99
2019-01-14T08:55:24.004Z,1002.07
2019-01-14T08:56:23.983Z,1002.11
2019-01-14T08:57:23.975Z,1002.15
2019-01-14T08:58:23.965Z,1002.13
2019-01-14T08:59:23.953Z,1002.09
2019-01-14T09:00:23.948Z,1002.15
2019-01-14T09:01:24.144Z,1002.13
2019-01-14T09:02:24.131Z,1002.18
2019-01-14T09:03:23.922Z,1002.16
2019-01-14T09:05:23.906Z,1002.20
2019-01-14T09:06:23.890Z,1002.17
2019-01-14T09:07:23.880Z,1002.19
2019-01-14T09:08:28.609Z,1002.23
2019-01-14T09:09:23.865Z,1002.20
2019-01-14T09:10:23.861Z,1002.24
2019-01-14T09:11:23.851Z,1002.26
2019-01-14T09:12:23.841Z,1002.22
2019-01-14T09:13:23.826Z,1002.30
2019-01-14T09:14:23.819Z,1002.24
2019-01-14T09:15:23.813Z,1002.22
2019-01-14T09:16:23.803Z,1002.39
2019-01-14T09:17:23.795Z,1002.27
2019-01-14T09:18:23.792Z,1002.32
2019-01-14T09:19:23.777Z,1002.38
2019-01-14T09:20:23.773Z,1002.31
2019-01-14T09:21:23.758Z,1002.36
2019-01-14T09:22:23.758Z,1002.36
2019-01-14T09:23:23.744Z,1002.36
2019-01-14T09:24:23.733Z,1002.33
2019-01-14T09:25:23.724Z,1002.34
2019-01-14T09:26:23.715Z,1002.35
2019-01-14T09:27:23.704Z,1002.40
2019-01-14T09:28:23.694Z,1002.47
2019-01-14T09:29:24.894Z,1002.44
2019-01-14T09:30:23.681Z,1002.43
2019-01-14T09:31:23.667Z,1002.38
2019-01-14T09:32:23.661Z,1002.41
2019-01-14T09:33:23.650Z,1002.30
2019-01-14T09:34:23.645Z,1002.43
2019-01-14T09:35:23.630Z,1002.37
2019-01-14T09:36:23.627Z,1002.40
2019-01-14T09:37:23.611Z,1002.46
2019-01-14T09:38:23.607Z,1002.48
2019-01-14T09:39:23.599Z,1002.40
2019-01-14T09:40:23.587Z,1002.39
2019-01-14T09:41:23.583Z,1002.45
2019-01-14T09:42:27.856Z,1002.41
2019-01-14T09:43:23.761Z,1002.44
2019-01-14T09:44:23.549Z,1002.44
2019-01-14T09:45:23.547Z,1002.51
2019-01-14T09:46:23.533Z,1002.38
2019-01-14T09:47:23.525Z,1002.44
2019-01-14T09:48:23.521Z,1002.40
2019-01-14T09:49:23.509Z,1002.49
2019-01-14T09:50:23.503Z,1002.46
2019-01-14T09:51:23.492Z,1002.52
2019-01-14T09:53:23.478Z,1002.50
2019-01-14T09:54:23.469Z,1002.55
2019-01-14T09:55:23.459Z,1002.57
2019-01-14T09:56:23.446Z,1002.61
2019-01-14T09:57:23.440Z,1002.55
2019-01-14T09:58:23.430Z,1002.51
2019-01-14T09:59:23.419Z,1002.54
2019-01-14T10:00:23.419Z,1002.57
2019-01-14T10:02:23.396Z,1002.59
2019-01-14T10:03:23.389Z,1002.57
2019-01-14T10:04:23.378Z,1002.59
2019-01-14T10:05:23.402Z,1002.65
2019-01-14T10:07:23.349Z,1002.56
2019-01-14T10:08:23.347Z,1002.57
2019-01-14T10:09:23.333Z,1002.58
2019-01-14T10:10:23.322Z,1002.62
2019-01-14T10:11:23.312Z,1002.60
2019-01-14T10:12:23.303Z,1002.62
2019-01-14T10:13:23.301Z,1002.59
2019-01-14T10:14:23.493Z,1002.63
2019-01-14T10:15:23.287Z,1002.64
2019-01-14T10:16:23.475Z,1002.62
2019-01-14T10:18:23.249Z,1002.60
2019-01-14T10:19:23.245Z,1002.60
2019-01-14T10:20:23.433Z,1002.64
2019-01-14T10:21:23.480Z,1002.69
2019-01-14T10:22:23.219Z,1002.77
2019-01-14T10:23:23.286Z,1002.76
2019-01-14T10:24:23.206Z,1002.71
2019-01-14T10:25:23.189Z,1002.70
2019-01-14T10:26:23.184Z,1002.72
2019-01-14T10:27:23.179Z,1002.78
2019-01-14T10:28:23.167Z,1002.77
2019-01-14T10:29:23.166Z,1002.73
2019-01-14T10:30:23.145Z,1002.69
2019-01-14T10:31:23.142Z,1002.72
2019-01-14T10:32:23.135Z,1002.73
2019-01-14T10:33:23.121Z,1002.77
2019-01-14T10:34:23.115Z,1002.74
2019-01-14T10:35:23.105Z,1002.78
2019-01-14T10:36:23.097Z,1002.74
2019-01-14T10:38:23.081Z,1002.70
2019-01-14T10:39:23.074Z,1002.79
2019-01-14T10:40:23.062Z,1002.81
2019-01-14T10:41:23.053Z,1002.81
2019-01-14T10:42:23.054Z,1002.94
2019-01-14T10:43:23.038Z,1002.86
2019-01-14T10:44:23.028Z,1002.86
2019-01-14T10:45:23.026Z,1002.88
2019-01-14T10:47:23.008Z,1002.93
2019-01-14T10:48:23.005Z,1002.95
2019-01-14T10:49:22.993Z,1003.10
2019-01-14T10:50:22.985Z,1003.14
2019-01-14T10:51:22.982Z,1003.13
2019-01-14T10:52:22.967Z,1003.09
2019-01-14T10:53:22.961Z,1003.09
2019-01-14T10:54:22.961Z,1003.12
2019-01-14T10:55:22.947Z,1003.23
2019-01-14T10:56:22.943Z,1003.26
2019-01-14T10:57:22.950Z,1003.21
2019-01-14T10:58:22.933Z,1003.27
2019-01-14T10:59:22.928Z,1003.19
2019-01-14T11:00:23.117Z,1003.29
2019-01-14T11:01:22.909Z,1003.26
2019-01-14T11:02:22.908Z,1003.25
2019-01-14T11:03:22.900Z,1003.31
2019-01-14T11:04:22.887Z,1003.31
2019-01-14T11:05:22.886Z,1003.34
2019-01-14T11:06:22.879Z,1003.29
2019-01-14T11:07:22.867Z,1003.27
2019-01-14T11:08:22.863Z,1003.27
2019-01-14T11:09:22.866Z,1003.36
2019-01-14T11:10:22.853Z,1003.32
2019-01-14T11:11:22.842Z,1003.32
2019-01-14T11:12:22.834Z,1003.34
2019-01-14T11:13:22.827Z,1003.32
2019-01-14T11:14:22.820Z,1003.34
2019-01-14T11:15:22.822Z,1003.41
2019-01-14T11:16:22.807Z,1003.34
2019-01-14T11:17:22.804Z,1003.39
2019-01-14T11:18:22.798Z,1003.39
2019-01-14T11:19:22.784Z,1003.36
2019-01-14T11:20:22.801Z,1003.39
2019-01-14T11:21:22.773Z,1003.48
2019-01-14T11:22:22.767Z,1003.51
2019-01-14T11:23:22.762Z,1003.55
2019-01-14T11:24:22.754Z,1003.57
2019-01-14T11:25:22.754Z,1003.52
2019-01-14T11:26:22.750Z,1003.57
2019-01-14T11:27:22.743Z,1003.59
2019-01-14T11:28:22.737Z,1003.59
2019-01-14T11:30:22.725Z,1003.63
2019-01-14T11:31:22.711Z,1003.65
2019-01-14T11:32:22.702Z,1003.64
2019-01-14T11:33:22.698Z,1003.69
2019-01-14T11:34:22.689Z,1003.75
2019-01-14T11:35:22.682Z,1003.74
2019-01-14T11:36:22.677Z,1003.69
2019-01-14T11:37:22.877Z,1003.76
2019-01-14T11:38:22.664Z,1003.74
2019-01-14T11:39:22.662Z,1003.75
2019-01-14T11:40:22.649Z,1003.79
2019-01-14T11:41:22.650Z,1003.79
2019-01-14T11:42:22.647Z,1003.76
2019-01-14T11:43:22.636Z,1003.79
2019-01-14T11:44:22.632Z,1003.72
2019-01-14T11:45:22.831Z,1003.68
2019-01-14T11:46:22.823Z,1003.70
2019-01-14T11:47:22.614Z,1003.76
2019-01-14T11:48:22.603Z,1003.75
2019-01-14T11:49:22.601Z,1003.74
2019-01-14T11:50:22.599Z,1003.70
2019-01-14T11:51:22.602Z,1003.75
2019-01-14T11:52:22.584Z,1003.70
2019-01-14T11:53:22.577Z,1003.75
2019-01-14T11:54:22.576Z,1003.75
2019-01-14T11:55:22.564Z,1003.70
2019-01-14T11:56:22.569Z,1003.75
2019-01-14T11:57:22.565Z,1003.67
2019-01-14T11:58:22.561Z,1003.67
2019-01-14T11:59:22.556Z,1003.73
2019-01-14T12:00:22.544Z,1003.63
2019-01-14T12:01:22.543Z,1003.68
2019-01-14T12:02:22.542Z,1003.69
2019-01-14T12:03:22.534Z,1003.76
2019-01-14T12:04:22.529Z,1003.83
2019-01-14T12:05:22.529Z,1003.86
2019-01-14T12:06:22.531Z,1003.88
2019-01-14T12:07:22.523Z,1003.79
2019-01-14T12:08:22.518Z,1003.82
2019-01-14T12:09:22.510Z,1003.90
2019-01-14T12:10:22.516Z,1003.89
2019-01-14T12:11:22.510Z,1003.89
2019-01-14T12:12:22.506Z,1003.98
2019-01-14T12:13:22.503Z,1003.98
2019-01-14T12:14:22.505Z,1003.97
2019-01-14T12:15:22.494Z,1004.02
2019-01-14T12:16:22.502Z,1004.02
2019-01-14T12:17:22.491Z,1004.08
2019-01-14T12:18:22.489Z,1004.09
2019-01-14T12:19:22.490Z,1004.15
2019-01-14T12:20:22.492Z,1004.18
2019-01-14T12:21:22.491Z,1004.22
2019-01-14T12:22:22.486Z,1004.24
2019-01-14T12:23:22.488Z,1004.17
2019-01-14T12:24:22.485Z,1004.22
2019-01-14T12:25:22.530Z,1004.22
2019-01-14T12:26:22.485Z,1004.16
2019-01-14T12:27:22.683Z,1004.15
2019-01-14T12:28:22.476Z,1004.11
2019-01-14T12:29:22.476Z,1004.14
2019-01-14T12:30:22.676Z,1004.18
2019-01-14T12:31:22.483Z,1004.12
2019-01-14T12:32:22.480Z,1004.11
2019-01-14T12:33:22.474Z,1004.13
2019-01-14T12:34:22.485Z,1004.13
2019-01-14T12:35:22.479Z,1004.19
2019-01-14T12:36:22.484Z,1004.11
2019-01-14T12:37:22.483Z,1004.17
2019-01-14T12:38:22.488Z,1004.22
2019-01-14T12:39:22.480Z,1004.18
2019-01-14T12:40:24.955Z,1004.19
2019-01-14T12:41:22.682Z,1004.25
2019-01-14T12:42:22.478Z,1004.24
2019-01-14T12:43:22.480Z,1004.26
2019-01-14T12:44:22.483Z,1004.28
2019-01-14T12:45:22.484Z,1004.31
2019-01-14T12:46:22.485Z,1004.22
2019-01-14T12:47:22.489Z,1004.24
2019-01-14T12:48:22.694Z,1004.17
2019-01-14T12:49:22.484Z,1004.17
2019-01-14T12:50:22.486Z,1004.19
2019-01-14T12:51:22.488Z,1004.22
2019-01-14T12:52:22.486Z,1004.20
2019-01-14T12:53:22.481Z,1004.19
2019-01-14T12:54:22.478Z,1004.15
2019-01-14T12:56:22.474Z,1004.24
2019-01-14T12:57:22.470Z,1004.24
2019-01-14T12:58:22.473Z,1004.18
2019-01-14T12:59:22.674Z,1004.24
2019-01-14T13:00:22.460Z,1004.29
2019-01-14T13:01:22.462Z,1004.50
2019-01-14T13:02:22.459Z,1004.57
2019-01-14T13:03:22.456Z,1004.62
2019-01-14T13:04:22.450Z,1004.79
2019-01-14T13:05:22.447Z,1004.85
2019-01-14T13:06:22.444Z,1004.78
2019-01-14T13:08:22.435Z,1004.74
2019-01-14T13:09:26.677Z,1004.57
2019-01-14T13:10:22.417Z,1004.63
2019-01-14T13:11:23.372Z,1004.57
2019-01-14T13:12:22.407Z,1004.52
2019-01-14T13:13:22.604Z,1004.58
2019-01-14T13:14:22.394Z,1004.56
2019-01-14T13:15:22.390Z,1004.60
2019-01-14T13:16:22.377Z,1004.59
2019-01-14T13:17:22.372Z,1004.56
2019-01-14T13:18:22.364Z,1004.48
2019-01-14T13:19:22.362Z,1004.45
2019-01-14T13:20:22.354Z,1004.47
2019-01-14T13:22:22.397Z,1004.52
2019-01-14T13:23:22.327Z,1004.52
2019-01-14T13:24:22.323Z,1004.49
2019-01-14T13:25:22.317Z,1004.50
2019-01-14T13:26:22.306Z,1004.53
2019-01-14T13:27:22.301Z,1004.48
2019-01-14T13:28:22.294Z,1004.50
2019-01-14T13:29:22.281Z,1004.58
2019-01-14T13:30:22.280Z,1004.53
2019-01-14T13:31:22.273Z,1004.54
2019-01-14T13:32:55.468Z,1004.52
2019-01-14T13:33:22.250Z,1004.48
2019-01-14T13:34:22.241Z,1004.58
2019-01-14T13:35:22.241Z,1004.62
2019-01-14T13:36:22.231Z,1004.60
2019-01-14T13:37:22.221Z,1004.70
2019-01-14T13:38:22.213Z,1004.71
2019-01-14T13:39:22.209Z,1004.69
2019-01-14T13:40:22.199Z,1004.70
2019-01-14T13:41:22.190Z,1004.79
2019-01-14T13:42:22.184Z,1004.71
2019-01-14T13:43:22.190Z,1004.79
2019-01-14T13:44:22.177Z,1004.77
2019-01-14T13:45:22.172Z,1004.84
2019-01-14T13:46:26.228Z,1004.89
2019-01-14T13:47:22.169Z,1004.87
2019-01-14T13:48:22.159Z,1004.86
2019-01-14T13:49:22.158Z,1004.89
2019-01-14T13:50:22.156Z,1004.89
2019-01-14T13:51:22.159Z,1004.92
2019-01-14T13:52:23.519Z,1004.93
2019-01-14T13:53:22.152Z,1004.89
2019-01-14T13:54:22.144Z,1004.95
2019-01-14T13:55:22.142Z,1004.92
2019-01-14T13:56:22.138Z,1004.97
2019-01-14T13:57:22.144Z,1005.04